createdAt,value
2023-04-22T00:00:59.090Z,1002.96
2023-04-22T00:01:59.093Z,1002.92
2023-04-22T00:02:59.337Z,1002.87
2023-04-22T00:03:59.389Z,1002.86
2023-04-22T00:04:59.273Z,1002.80
2023-04-22T00:05:59.062Z,1002.82
2023-04-22T00:06:59.017Z,1002.90
2023-04-22T00:07:59.012Z,1002.76
2023-04-22T00:08:59.003Z,1002.67
2023-04-22T00:09:58.977Z,1002.66
2023-04-22T00:10:58.973Z,1002.68
2023-04-22T00:11:58.956Z,1002.66
2023-04-22T00:12:58.965Z,1002.65
2023-04-22T00:13:58.944Z,1002.65
2023-04-22T00:14:58.928Z,1002.65
2023-04-22T00:15:58.976Z,1002.63
2023-04-22T00:16:58.905Z,1002.65
2023-04-22T00:17:58.970Z,1002.60
2023-04-22T00:18:59.374Z,1002.58
2023-04-22T00:19:58.865Z,1002.55
2023-04-22T00:20:58.870Z,1002.56
2023-04-22T00:21:58.847Z,1002.59
2023-04-22T00:22:58.843Z,1002.53
2023-04-22T00:23:58.839Z,1002.55
2023-04-22T00:24:58.818Z,1002.58
2023-04-22T00:25:58.795Z,1002.49
2023-04-22T00:26:58.788Z,1002.54
2023-04-22T00:27:58.774Z,1002.54
2023-04-22T00:28:58.760Z,1002.53
2023-04-22T00:29:58.758Z,1002.54
2023-04-22T00:30:58.798Z,1002.56
2023-04-22T00:31:58.794Z,1002.56
2023-04-22T00:32:58.780Z,1002.60
2023-04-22T00:33:58.725Z,1002.60
2023-04-22T00:34:58.705Z,1002.62
2023-04-22T00:35:58.696Z,1002.59
2023-04-22T00:36:58.674Z,1002.57
2023-04-22T00:37:58.662Z,1002.67
2023-04-22T00:38:58.670Z,1002.68
2023-04-22T00:39:58.637Z,1002.58
2023-04-22T00:40:58.624Z,1002.58
2023-04-22T00:41:58.621Z,1002.55
2023-04-22T00:42:58.630Z,1002.59
2023-04-22T00:43:58.586Z,1002.69
2023-04-22T00:44:58.587Z,1002.57
2023-04-22T00:45:58.568Z,1002.67
2023-04-22T00:46:58.615Z,1002.64
2023-04-22T00:47:58.589Z,1002.64
2023-04-22T00:48:58.551Z,1002.57
2023-04-22T00:49:58.549Z,1002.50
2023-04-22T00:50:58.512Z,1002.56
2023-04-22T00:51:58.512Z,1002.53
2023-04-22T00:52:58.489Z,1002.56
2023-04-22T00:53:58.491Z,1002.59
2023-04-22T00:54:58.479Z,1002.57
2023-04-22T00:55:58.452Z,1002.58
2023-04-22T00:56:58.443Z,1002.57
2023-04-22T00:57:58.429Z,1002.63
2023-04-22T00:58:58.431Z,1002.60
2023-04-22T00:59:58.414Z,1002.62
2023-04-22T01:00:58.472Z,1002.55
2023-04-22T01:01:58.406Z,1002.56
2023-04-22T01:02:58.595Z,1002.56
2023-04-22T01:03:58.512Z,1002.52
2023-04-22T01:04:58.391Z,1002.54
2023-04-22T01:05:58.371Z,1002.55
2023-04-22T01:06:58.359Z,1002.50
2023-04-22T01:07:58.315Z,1002.51
2023-04-22T01:08:58.313Z,1002.48
2023-04-22T01:09:58.308Z,1002.51
2023-04-22T01:10:58.307Z,1002.54
2023-04-22T01:11:58.270Z,1002.56
2023-04-22T01:12:58.272Z,1002.52
2023-04-22T01:13:58.281Z,1002.53
2023-04-22T01:14:58.250Z,1002.49
2023-04-22T01:15:58.225Z,1002.46
2023-04-22T01:16:58.328Z,1002.48
2023-04-22T01:17:58.288Z,1002.49
2023-04-22T01:18:58.206Z,1002.44
2023-04-22T01:19:58.183Z,1002.46
2023-04-22T01:20:58.190Z,1002.44
2023-04-22T01:21:58.181Z,1002.42
2023-04-22T01:22:58.174Z,1002.43
2023-04-22T01:23:58.163Z,1002.38
2023-04-22T01:24:58.140Z,1002.37
2023-04-22T01:25:58.133Z,1002.38
2023-04-22T01:26:58.110Z,1002.36
2023-04-22T01:27:58.105Z,1002.44
2023-04-22T01:28:58.106Z,1002.43
2023-04-22T01:29:58.077Z,1002.36
2023-04-22T01:30:58.060Z,1002.35
2023-04-22T01:31:58.076Z,1002.35
2023-04-22T01:32:58.076Z,1002.25
2023-04-22T01:33:58.031Z,1002.28
2023-04-22T01:34:58.033Z,1002.27
2023-04-22T01:35:58.004Z,1002.33
2023-04-22T01:36:57.993Z,1002.29
2023-04-22T01:37:58.095Z,1002.27
2023-04-22T01:38:57.975Z,1002.31
2023-04-22T01:39:57.956Z,1002.32
2023-04-22T01:40:57.959Z,1002.20
2023-04-22T01:41:57.947Z,1002.23
2023-04-22T01:42:57.935Z,1002.26
2023-04-22T01:43:57.931Z,1002.28
2023-04-22T01:44:57.906Z,1002.28
2023-04-22T01:45:57.919Z,1002.24
2023-04-22T01:46:57.885Z,1002.25
2023-04-22T01:47:57.958Z,1002.32
2023-04-22T01:48:57.859Z,1002.23
2023-04-22T01:49:57.855Z,1002.25
2023-04-22T01:50:57.836Z,1002.32
2023-04-22T01:51:57.834Z,1002.31
2023-04-22T01:52:57.817Z,1002.26
2023-04-22T01:53:57.821Z,1002.26
2023-04-22T01:54:57.806Z,1002.30
2023-04-22T01:55:57.786Z,1002.30
2023-04-22T01:56:57.770Z,1002.22
2023-04-22T01:57:57.787Z,1002.23
2023-04-22T01:58:57.749Z,1002.31
2023-04-22T01:59:57.746Z,1002.30
2023-04-22T02:00:57.754Z,1002.27
2023-04-22T02:01:57.757Z,1002.34
2023-04-22T02:02:57.778Z,1002.28
2023-04-22T02:03:57.689Z,1002.25
2023-04-22T02:04:57.796Z,1002.31
2023-04-22T02:05:57.678Z,1002.21
2023-04-22T02:06:57.657Z,1002.24
2023-04-22T02:07:57.645Z,1002.27
2023-04-22T02:08:57.647Z,1002.21
2023-04-22T02:09:57.647Z,1002.29
2023-04-22T02:10:57.620Z,1002.33
2023-04-22T02:11:57.595Z,1002.28
2023-04-22T02:12:57.601Z,1002.26
2023-04-22T02:13:57.570Z,1002.26
2023-04-22T02:14:57.586Z,1002.29
2023-04-22T02:15:57.595Z,1002.32
2023-04-22T02:16:57.546Z,1002.30
2023-04-22T02:17:57.529Z,1002.28
2023-04-22T02:18:57.520Z,1002.29
2023-04-22T02:19:57.529Z,1002.25
2023-04-22T02:20:57.505Z,1002.33
2023-04-22T02:21:57.492Z,1002.29
2023-04-22T02:22:57.474Z,1002.30
2023-04-22T02:23:57.462Z,1002.31
2023-04-22T02:24:57.468Z,1002.32
2023-04-22T02:25:57.464Z,1002.30
2023-04-22T02:26:57.449Z,1002.28
2023-04-22T02:29:28.262Z,1002.27
2023-04-22T02:30:28.270Z,1002.22
2023-04-22T02:31:28.296Z,1002.24
2023-04-22T02:32:28.273Z,1002.21
2023-04-22T02:33:28.234Z,1002.23
2023-04-22T02:34:28.205Z,1002.19
2023-04-22T02:35:28.205Z,1002.20
2023-04-22T02:36:28.201Z,1002.19
2023-04-22T02:37:28.168Z,1002.13
2023-04-22T02:38:28.232Z,1002.09
2023-04-22T02:39:28.145Z,1002.16
2023-04-22T02:40:28.152Z,1002.13
2023-04-22T02:41:28.142Z,1002.13
2023-04-22T02:42:35.173Z,1002.17
2023-04-22T02:43:28.112Z,1002.09
2023-04-22T02:44:28.104Z,1002.16
2023-04-22T02:45:28.103Z,1002.16
2023-04-22T02:46:28.141Z,1002.17
2023-04-22T02:47:28.081Z,1002.10
2023-04-22T02:48:28.050Z,1002.13
2023-04-22T02:49:28.039Z,1002.11
2023-04-22T02:50:28.048Z,1002.14
2023-04-22T02:51:28.033Z,1002.08
2023-04-22T02:52:28.026Z,1002.12
2023-04-22T02:53:27.997Z,1002.09
2023-04-22T02:54:27.998Z,1002.01
2023-04-22T02:55:27.982Z,1002.05
2023-04-22T02:56:27.966Z,1002.02
2023-04-22T02:57:27.994Z,1001.97
2023-04-22T02:58:27.941Z,1001.93
2023-04-22T02:59:27.949Z,1001.96
2023-04-22T03:00:27.916Z,1001.91
2023-04-22T03:01:28.012Z,1001.95
2023-04-22T03:02:28.010Z,1001.91
2023-04-22T03:03:28.082Z,1001.92
2023-04-22T03:04:28.076Z,1001.95
2023-04-22T03:05:27.872Z,1001.95
2023-04-22T03:06:27.868Z,1001.95
2023-04-22T03:07:27.836Z,1001.94
2023-04-22T03:08:27.855Z,1001.92
2023-04-22T03:09:27.827Z,1001.97
2023-04-22T03:10:27.804Z,1001.92
2023-04-22T03:11:27.792Z,1001.89
2023-04-22T03:12:27.817Z,1001.96
2023-04-22T03:13:27.829Z,1001.92
2023-04-22T03:14:27.763Z,1001.91
2023-04-22T03:15:27.749Z,1001.93
2023-04-22T03:16:27.788Z,1001.91
2023-04-22T03:17:27.728Z,1001.89
2023-04-22T03:18:27.742Z,1001.91
2023-04-22T03:19:27.719Z,1001.90
2023-04-22T03:20:27.697Z,1001.90
2023-04-22T03:21:27.683Z,1001.80
2023-04-22T03:22:27.673Z,1001.82
2023-04-22T03:23:27.681Z,1001.83
2023-04-22T03:24:27.663Z,1001.84
2023-04-22T03:25:27.638Z,1001.88
2023-04-22T03:26:27.630Z,1001.86
2023-04-22T03:27:27.620Z,1001.79
2023-04-22T03:28:27.611Z,1001.91
2023-04-22T03:29:28.188Z,1001.85
2023-04-22T03:30:27.601Z,1001.81
2023-04-22T03:31:27.612Z,1001.80
2023-04-22T03:32:27.578Z,1001.77
2023-04-22T03:33:27.552Z,1001.80
2023-04-22T03:34:27.558Z,1001.83
2023-04-22T03:35:27.527Z,1001.72
2023-04-22T03:36:27.551Z,1001.73
2023-04-22T03:37:27.512Z,1001.75
2023-04-22T03:38:27.537Z,1001.71
2023-04-22T03:39:27.488Z,1001.74
2023-04-22T03:40:27.483Z,1001.71
2023-04-22T03:41:27.473Z,1001.76
2023-04-22T03:42:27.483Z,1001.67
2023-04-22T03:43:27.443Z,1001.74
2023-04-22T03:44:27.450Z,1001.66
2023-04-22T03:45:27.437Z,1001.76
2023-04-22T03:46:27.481Z,1001.72
2023-04-22T03:47:27.447Z,1001.63
2023-04-22T03:48:27.386Z,1001.72
2023-04-22T03:49:27.394Z,1001.70
2023-04-22T03:50:27.379Z,1001.67
2023-04-22T03:51:27.419Z,1001.68
2023-04-22T03:52:27.352Z,1001.75
2023-04-22T03:53:27.335Z,1001.68
2023-04-22T03:54:27.329Z,1001.72
2023-04-22T03:55:27.306Z,1001.76
2023-04-22T03:56:27.310Z,1001.72
2023-04-22T03:57:27.304Z,1001.75
2023-04-22T03:58:27.308Z,1001.74
2023-04-22T03:59:27.269Z,1001.73
2023-04-22T04:00:27.261Z,1001.73
2023-04-22T04:01:27.281Z,1001.77
2023-04-22T04:02:27.420Z,1001.84
2023-04-22T04:03:28.789Z,1001.70
2023-04-22T04:04:27.518Z,1001.77
2023-04-22T04:05:27.276Z,1001.67
2023-04-22T04:06:27.184Z,1001.70
2023-04-22T04:07:27.182Z,1001.66
2023-04-22T04:08:27.165Z,1001.66
2023-04-22T04:09:27.150Z,1001.69
2023-04-22T04:10:27.157Z,1001.67
2023-04-22T04:11:27.157Z,1001.71
2023-04-22T04:12:27.116Z,1001.63
2023-04-22T04:13:27.107Z,1001.62
2023-04-22T04:14:27.102Z,1001.68
2023-04-22T04:15:27.082Z,1001.68
2023-04-22T04:16:27.214Z,1001.60
2023-04-22T04:17:27.107Z,1001.51
2023-04-22T04:18:27.060Z,1001.68
2023-04-22T04:19:27.060Z,1001.61
2023-04-22T04:20:27.030Z,1001.55
2023-04-22T04:21:27.044Z,1001.58
2023-04-22T04:22:27.016Z,1001.59
2023-04-22T04:23:27.008Z,1001.56
2023-04-22T04:24:26.990Z,1001.52
2023-04-22T04:25:26.972Z,1001.50
2023-04-22T04:26:26.993Z,1001.45
2023-04-22T04:27:26.954Z,1001.51
2023-04-22T04:28:26.948Z,1001.50
2023-04-22T04:29:26.938Z,1001.52
2023-04-22T04:30:26.921Z,1001.52
2023-04-22T04:31:26.928Z,1001.59
2023-04-22T04:32:26.987Z,1001.56
2023-04-22T04:33:26.919Z,1001.52
2023-04-22T04:34:26.883Z,1001.55
2023-04-22T04:35:26.881Z,1001.50
2023-04-22T04:36:26.851Z,1001.50
2023-04-22T04:37:26.835Z,1001.51
2023-04-22T04:38:26.844Z,1001.49
2023-04-22T04:39:26.813Z,1001.45
2023-04-22T04:40:26.806Z,1001.42
2023-04-22T04:41:26.808Z,1001.47
2023-04-22T04:42:26.788Z,1001.51
2023-04-22T04:43:26.784Z,1001.51
2023-04-22T04:44:26.771Z,1001.49
2023-04-22T04:45:26.762Z,1001.43
2023-04-22T04:46:26.776Z,1001.48
2023-04-22T04:47:26.775Z,1001.46
2023-04-22T04:48:26.768Z,1001.39
2023-04-22T04:49:26.741Z,1001.45
2023-04-22T04:50:26.701Z,1001.42
2023-04-22T04:51:26.732Z,1001.48
2023-04-22T04:52:26.673Z,1001.41
2023-04-22T04:53:26.699Z,1001.41
2023-04-22T04:54:26.674Z,1001.46
2023-04-22T04:55:26.643Z,1001.41
2023-04-22T04:56:26.646Z,1001.47
2023-04-22T04:57:26.632Z,1001.43
2023-04-22T04:58:26.637Z,1001.40
2023-04-22T04:59:26.615Z,1001.39
2023-04-22T05:00:26.595Z,1001.40
2023-04-22T05:01:26.624Z,1001.44
2023-04-22T05:02:26.708Z,1001.39
2023-04-22T05:03:26.740Z,1001.37
2023-04-22T05:04:26.883Z,1001.40
2023-04-22T05:05:26.551Z,1001.45
2023-04-22T05:06:26.520Z,1001.44
2023-04-22T05:07:26.526Z,1001.42
2023-04-22T05:08:26.497Z,1001.46
2023-04-22T05:09:26.492Z,1001.47
2023-04-22T05:10:26.483Z,1001.51
2023-04-22T05:11:26.480Z,1001.46
2023-04-22T05:12:26.455Z,1001.40
2023-04-22T05:13:26.458Z,1001.41
2023-04-22T05:14:26.456Z,1001.37
2023-04-22T05:15:26.414Z,1001.32
2023-04-22T05:16:26.461Z,1001.37
2023-04-22T05:17:26.410Z,1001.37
2023-04-22T05:18:26.388Z,1001.38
2023-04-22T05:19:26.376Z,1001.29
2023-04-22T05:20:26.406Z,1001.36
2023-04-22T05:21:26.383Z,1001.38
2023-04-22T05:22:26.347Z,1001.31
2023-04-22T05:23:26.359Z,1001.38
2023-04-22T05:24:26.340Z,1001.35
2023-04-22T05:25:26.308Z,1001.35
2023-04-22T05:26:26.312Z,1001.39
2023-04-22T05:27:26.289Z,1001.43
2023-04-22T05:28:26.285Z,1001.40
2023-04-22T05:29:26.281Z,1001.38
2023-04-22T05:30:26.266Z,1001.40
2023-04-22T05:31:26.319Z,1001.37
2023-04-22T05:32:26.368Z,1001.36
2023-04-22T05:33:26.241Z,1001.41
2023-04-22T05:34:26.218Z,1001.41
2023-04-22T05:35:26.209Z,1001.43
2023-04-22T05:36:27.473Z,1001.37
2023-04-22T05:37:26.219Z,1001.40
2023-04-22T05:38:26.169Z,1001.41
2023-04-22T05:39:26.156Z,1001.44
2023-04-22T05:40:26.158Z,1001.41
2023-04-22T05:41:26.146Z,1001.46
2023-04-22T05:42:26.133Z,1001.43
2023-04-22T05:43:26.132Z,1001.36
2023-04-22T05:44:26.109Z,1001.41
2023-04-22T05:45:26.091Z,1001.45
2023-04-22T05:46:26.125Z,1001.41
2023-04-22T05:47:26.150Z,1001.41
2023-04-22T05:48:26.080Z,1001.53
2023-04-22T05:49:26.060Z,1001.47
2023-04-22T05:50:26.036Z,1001.36
2023-04-22T05:51:26.035Z,1001.40
2023-04-22T05:52:26.014Z,1001.33
2023-04-22T05:53:26.025Z,1001.38
2023-04-22T05:54:26.001Z,1001.51
2023-04-22T05:55:25.996Z,1001.47
2023-04-22T05:56:25.977Z,1001.40
2023-04-22T05:57:25.955Z,1001.34
2023-04-22T05:58:25.946Z,1001.41
2023-04-22T05:59:25.946Z,1001.42
2023-04-22T06:00:25.921Z,1001.41
2023-04-22T06:01:25.937Z,1001.41
2023-04-22T06:02:26.052Z,1001.40
2023-04-22T06:03:26.068Z,1001.37
2023-04-22T06:04:26.154Z,1001.37
2023-04-22T06:05:25.972Z,1001.37
2023-04-22T06:06:25.874Z,1001.43
2023-04-22T06:07:25.847Z,1001.33
2023-04-22T06:08:25.837Z,1001.38
2023-04-22T06:09:25.864Z,1001.35
2023-04-22T06:10:25.815Z,1001.34
2023-04-22T06:11:25.834Z,1001.37
2023-04-22T06:12:25.787Z,1001.34
2023-04-22T06:13:25.794Z,1001.41
2023-04-22T06:14:25.766Z,1001.39
2023-04-22T06:15:25.760Z,1001.39
2023-04-22T06:16:25.752Z,1001.39
2023-04-22T06:17:25.795Z,1001.35
2023-04-22T06:18:26.581Z,1001.29
2023-04-22T06:19:25.720Z,1001.35
2023-04-22T06:20:25.717Z,1001.31
2023-04-22T06:21:25.691Z,1001.24
2023-04-22T06:22:25.698Z,1001.24
2023-04-22T06:23:25.677Z,1001.26
2023-04-22T06:24:25.654Z,1001.22
2023-04-22T06:25:25.672Z,1001.26
2023-04-22T06:26:25.633Z,1001.29
2023-04-22T06:27:25.640Z,1001.25
2023-04-22T06:28:25.608Z,1001.24
2023-04-22T06:29:25.623Z,1001.30
2023-04-22T06:30:25.591Z,1001.22
2023-04-22T06:31:25.629Z,1001.28
2023-04-22T06:32:25.574Z,1001.31
2023-04-22T06:33:25.560Z,1001.26
2023-04-22T06:34:25.548Z,1001.29
2023-04-22T06:35:25.541Z,1001.32
2023-04-22T06:36:25.518Z,1001.28
2023-04-22T06:37:25.526Z,1001.28
2023-04-22T06:38:25.512Z,1001.31
2023-04-22T06:39:25.495Z,1001.34
2023-04-22T06:40:25.479Z,1001.40
2023-04-22T06:41:25.488Z,1001.34
2023-04-22T06:42:25.491Z,1001.34
2023-04-22T06:43:25.444Z,1001.36
2023-04-22T06:44:25.431Z,1001.42
2023-04-22T06:45:25.421Z,1001.43
2023-04-22T06:46:25.433Z,1001.39
2023-04-22T06:47:25.436Z,1001.41
2023-04-22T06:48:25.420Z,1001.41
2023-04-22T06:49:25.377Z,1001.44
2023-04-22T06:50:25.362Z,1001.47
2023-04-22T06:51:25.357Z,1001.36
2023-04-22T06:52:25.347Z,1001.41
2023-04-22T06:53:25.355Z,1001.39
2023-04-22T06:54:25.346Z,1001.38
2023-04-22T06:55:25.323Z,1001.34
2023-04-22T06:56:25.299Z,1001.38
2023-04-22T06:57:25.314Z,1001.38
2023-04-22T06:58:25.275Z,1001.35
2023-04-22T06:59:25.281Z,1001.35
2023-04-22T07:00:25.253Z,1001.37
2023-04-22T07:01:25.265Z,1001.38
2023-04-22T07:02:25.293Z,1001.34
2023-04-22T07:03:25.321Z,1001.41
2023-04-22T07:04:25.292Z,1001.36
2023-04-22T07:05:25.197Z,1001.37
2023-04-22T07:06:25.185Z,1001.37
2023-04-22T07:07:25.187Z,1001.37
2023-04-22T07:08:25.164Z,1001.36
2023-04-22T07:09:25.168Z,1001.34
2023-04-22T07:10:25.137Z,1001.32
2023-04-22T07:11:25.129Z,1001.35
2023-04-22T07:12:25.123Z,1001.31
2023-04-22T07:13:25.125Z,1001.37
2023-04-22T07:14:25.128Z,1001.37
2023-04-22T07:15:25.092Z,1001.36
2023-04-22T07:16:25.090Z,1001.35
2023-04-22T07:17:25.086Z,1001.37
2023-04-22T07:18:25.049Z,1001.35
2023-04-22T07:19:25.042Z,1001.40
2023-04-22T07:20:25.069Z,1001.46
2023-04-22T07:21:25.019Z,1001.37
2023-04-22T07:22:25.002Z,1001.40
2023-04-22T07:23:25.003Z,1001.39
2023-04-22T07:24:24.978Z,1001.40
2023-04-22T07:25:24.989Z,1001.38
2023-04-22T07:26:24.990Z,1001.27
2023-04-22T07:27:24.963Z,1001.33
2023-04-22T07:28:24.936Z,1001.34
2023-04-22T07:29:24.948Z,1001.29
2023-04-22T07:30:24.963Z,1001.31
2023-04-22T07:31:24.909Z,1001.31
2023-04-22T07:32:24.953Z,1001.24
2023-04-22T07:33:24.880Z,1001.20
2023-04-22T07:34:24.867Z,1001.14
2023-04-22T07:35:24.882Z,1001.18
2023-04-22T07:36:24.855Z,1001.22
2023-04-22T07:37:24.846Z,1001.19
2023-04-22T07:38:24.822Z,1001.13
2023-04-22T07:39:24.831Z,1001.15
2023-04-22T07:40:24.902Z,1001.06
2023-04-22T07:41:24.795Z,1001.09
2023-04-22T07:42:24.778Z,1001.16
2023-04-22T07:43:24.770Z,1001.10
2023-04-22T07:44:24.758Z,1001.16
2023-04-22T07:45:24.791Z,1001.16
2023-04-22T07:46:24.763Z,1001.17
2023-04-22T07:47:24.796Z,1001.24
2023-04-22T07:48:24.720Z,1001.18
2023-04-22T07:49:24.699Z,1001.12
2023-04-22T07:50:24.749Z,1001.08
2023-04-22T07:51:24.682Z,1001.05
2023-04-22T07:52:24.701Z,1000.99
2023-04-22T07:53:24.657Z,1001.00
2023-04-22T07:54:24.659Z,1000.99
2023-04-22T07:55:24.637Z,1001.05
2023-04-22T07:56:24.636Z,1001.03
2023-04-22T07:57:24.638Z,1001.08
2023-04-22T07:58:24.617Z,1001.06
2023-04-22T07:59:24.605Z,1001.05
2023-04-22T08:00:24.599Z,1001.10
2023-04-22T08:01:24.619Z,1001.11
2023-04-22T08:02:24.686Z,1001.09
2023-04-22T08:03:24.838Z,1001.11
2023-04-22T08:04:24.704Z,1001.10
2023-04-22T08:05:24.561Z,1001.13
2023-04-22T08:06:24.513Z,1001.15
2023-04-22T08:07:32.544Z,1001.13
2023-04-22T08:08:25.490Z,1001.13
2023-04-22T08:09:24.487Z,1001.17
2023-04-22T08:10:24.486Z,1001.09
2023-04-22T08:11:24.460Z,1001.07
2023-04-22T08:12:24.471Z,1001.05
2023-04-22T08:13:24.444Z,1001.02
2023-04-22T08:14:24.431Z,1001.04
2023-04-22T08:15:24.424Z,1001.04
2023-04-22T08:16:24.470Z,1001.05
2023-04-22T08:17:24.441Z,1001.09
2023-04-22T08:18:24.402Z,1001.04
2023-04-22T08:19:24.375Z,1001.01
2023-04-22T08:20:24.368Z,1000.97
2023-04-22T08:21:24.356Z,1001.05
2023-04-22T08:22:24.362Z,1001.09
2023-04-22T08:23:24.330Z,1001.04
2023-04-22T08:24:24.363Z,1000.95
2023-04-22T08:25:24.311Z,1000.96
2023-04-22T08:26:24.305Z,1000.89
2023-04-22T08:27:24.299Z,1000.90
2023-04-22T08:28:24.307Z,1000.93
2023-04-22T08:29:24.266Z,1000.90
2023-04-22T08:30:24.263Z,1000.92
2023-04-22T08:31:24.292Z,1000.90
2023-04-22T08:32:24.250Z,1000.88
2023-04-22T08:33:26.527Z,1000.87
2023-04-22T08:34:24.222Z,1000.87
2023-04-22T08:35:24.216Z,1000.91
2023-04-22T08:36:24.186Z,1000.84
2023-04-22T08:37:24.185Z,1000.80
2023-04-22T08:38:24.166Z,1000.83
2023-04-22T08:39:24.157Z,1000.86
2023-04-22T08:40:24.156Z,1000.78
2023-04-22T08:41:24.146Z,1000.69
2023-04-22T08:42:24.118Z,1000.69
2023-04-22T08:43:24.106Z,1000.69
2023-04-22T08:44:24.102Z,1000.66
2023-04-22T08:45:24.081Z,1000.66
2023-04-22T08:46:24.198Z,1000.65
2023-04-22T08:47:24.113Z,1000.55
2023-04-22T08:48:24.061Z,1000.61
2023-04-22T08:49:24.072Z,1000.63
2023-04-22T08:50:24.050Z,1000.59
2023-04-22T08:51:24.016Z,1000.55
2023-04-22T08:52:24.019Z,1000.51
2023-04-22T08:53:24.920Z,1000.51
2023-04-22T08:54:23.987Z,1000.52
2023-04-22T08:55:23.982Z,1000.53
2023-04-22T08:56:23.955Z,1000.54
2023-04-22T08:57:23.950Z,1000.46
2023-04-22T08:58:23.949Z,1000.45
2023-04-22T08:59:23.943Z,1000.59
2023-04-22T09:00:23.916Z,1000.61
2023-04-22T09:01:24.008Z,1000.61
2023-04-22T09:02:23.988Z,1000.59
2023-04-22T09:03:23.976Z,1000.67
2023-04-22T09:04:23.961Z,1000.65
2023-04-22T09:05:25.584Z,1000.66
2023-04-22T09:06:23.859Z,1000.73
2023-04-22T09:07:23.845Z,1000.75
2023-04-22T09:08:23.851Z,1000.72
2023-04-22T09:09:23.830Z,1000.76
2023-04-22T09:10:23.801Z,1000.73
2023-04-22T09:11:23.793Z,1000.69
2023-04-22T09:12:23.790Z,1000.69
2023-04-22T09:13:23.767Z,1000.73
2023-04-22T09:14:23.773Z,1000.72
2023-04-22T09:15:23.761Z,1000.71
2023-04-22T09:16:23.771Z,1000.67
2023-04-22T09:17:23.778Z,1000.65
2023-04-22T09:18:23.716Z,1000.69
2023-04-22T09:19:23.725Z,1000.66
2023-04-22T09:20:23.695Z,1000.68
2023-04-22T09:21:23.811Z,1000.65
2023-04-22T09:22:23.689Z,1000.60
2023-04-22T09:23:23.655Z,1000.57
2023-04-22T09:24:23.648Z,1000.64
2023-04-22T09:25:23.647Z,1000.56
2023-04-22T09:26:23.640Z,1000.43
2023-04-22T09:27:23.634Z,1000.42
2023-04-22T09:28:23.634Z,1000.42
2023-04-22T09:29:23.586Z,1000.39
2023-04-22T09:30:23.579Z,1000.40
2023-04-22T09:31:23.600Z,1000.29
2023-04-22T09:32:23.573Z,1000.30
2023-04-22T09:33:23.561Z,1000.34
2023-04-22T09:34:23.549Z,1000.31
2023-04-22T09:35:23.534Z,1000.36
2023-04-22T09:36:23.551Z,1000.37
2023-04-22T09:37:23.525Z,1000.43
2023-04-22T09:38:23.482Z,1000.36
2023-04-22T09:39:23.502Z,1000.46
2023-04-22T09:40:23.476Z,1000.44
2023-04-22T09:41:23.460Z,1000.50
2023-04-22T09:42:23.460Z,1000.49
2023-04-22T09:43:23.434Z,1000.44
2023-04-22T09:44:23.420Z,1000.38
2023-04-22T09:45:23.430Z,1000.44
2023-04-22T09:46:23.564Z,1000.41
2023-04-22T09:47:23.444Z,1000.43
2023-04-22T09:48:23.388Z,1000.38
2023-04-22T09:49:23.389Z,1000.41
2023-04-22T09:50:23.355Z,1000.27
2023-04-22T09:51:23.374Z,1000.38
2023-04-22T09:52:23.355Z,1000.27
2023-04-22T09:53:23.347Z,1000.35
2023-04-22T09:54:23.309Z,1000.31
2023-04-22T09:55:23.302Z,1000.28
2023-04-22T09:56:23.298Z,1000.29
2023-04-22T09:57:23.280Z,1000.29
2023-04-22T09:58:23.277Z,1000.18
2023-04-22T09:59:23.304Z,1000.23
2023-04-22T10:00:23.240Z,1000.22
2023-04-22T10:01:23.260Z,1000.20
2023-04-22T10:02:23.261Z,1000.21
2023-04-22T10:03:23.245Z,1000.31
2023-04-22T10:04:23.370Z,1000.19
2023-04-22T10:05:23.191Z,1000.27
2023-04-22T10:06:23.184Z,1000.26
2023-04-22T10:07:23.167Z,1000.20
2023-04-22T10:08:23.229Z,1000.26
2023-04-22T10:09:23.164Z,1000.32
2023-04-22T10:10:23.133Z,1000.23
2023-04-22T10:11:23.120Z,1000.27
2023-04-22T10:12:32.925Z,1000.25
2023-04-22T10:13:24.113Z,1000.19
2023-04-22T10:14:23.236Z,1000.25
2023-04-22T10:15:24.889Z,1000.21
2023-04-22T10:16:23.076Z,1000.32
2023-04-22T10:17:23.086Z,1000.23
2023-04-22T10:18:23.044Z,1000.24
2023-04-22T10:19:23.061Z,1000.23
2023-04-22T10:20:23.024Z,1000.20
2023-04-22T10:21:24.697Z,1000.21
2023-04-22T10:22:23.012Z,1000.19
2023-04-22T10:23:22.992Z,1000.14
2023-04-22T10:24:22.973Z,1000.18
2023-04-22T10:25:22.998Z,1000.15
2023-04-22T10:26:22.952Z,1000.11
2023-04-22T10:27:23.180Z,1000.22
2023-04-22T10:28:23.312Z,1000.23
2023-04-22T10:29:22.919Z,1000.17
2023-04-22T10:30:22.917Z,1000.08
2023-04-22T10:31:23.011Z,1000.08
2023-04-22T10:32:22.962Z,1000.09
2023-04-22T10:33:22.873Z,1000.02
2023-04-22T10:34:22.864Z,1000.16
2023-04-22T10:35:22.861Z,1000.03
2023-04-22T10:36:22.846Z,1000.02
2023-04-22T10:37:22.843Z,1000.02
2023-04-22T10:38:22.819Z,1000.01
2023-04-22T10:39:22.804Z,1000.02
2023-04-22T10:40:22.831Z,1000.11
2023-04-22T10:41:22.819Z,1000.08
2023-04-22T10:42:22.783Z,1000.04
2023-04-22T10:43:22.780Z,1000.08
2023-04-22T10:44:22.750Z,1000.04
2023-04-22T10:45:22.739Z,1000.02
2023-04-22T10:46:22.767Z,999.93
2023-04-22T10:47:22.754Z,999.88
2023-04-22T10:48:22.709Z,999.96
2023-04-22T10:49:22.725Z,999.91
2023-04-22T10:50:22.712Z,999.96
2023-04-22T10:51:22.673Z,999.95
2023-04-22T10:52:22.687Z,999.95
2023-04-22T10:53:22.652Z,999.93
2023-04-22T10:54:22.787Z,999.90
2023-04-22T10:55:22.650Z,999.90
2023-04-22T10:56:22.628Z,999.93
2023-04-22T10:57:22.839Z,1000.00
2023-04-22T10:58:22.627Z,999.95
2023-04-22T10:59:22.587Z,999.85
2023-04-22T11:00:22.590Z,999.86
2023-04-22T11:01:22.589Z,999.88
2023-04-22T11:02:22.596Z,999.77
2023-04-22T11:03:22.774Z,999.81
2023-04-22T11:04:22.751Z,999.78
2023-04-22T11:05:24.594Z,999.74
2023-04-22T11:06:22.556Z,999.82
2023-04-22T11:07:22.538Z,999.79
2023-04-22T11:08:22.506Z,999.74
2023-04-22T11:09:22.488Z,999.84
2023-04-22T11:10:22.473Z,999.79
2023-04-22T11:11:22.464Z,999.71
2023-04-22T11:12:22.449Z,999.77
2023-04-22T11:13:22.483Z,999.73
2023-04-22T11:14:22.429Z,999.77
2023-04-22T11:15:22.438Z,999.68
2023-04-22T11:16:22.694Z,999.73
2023-04-22T11:17:22.450Z,999.70
2023-04-22T11:18:22.449Z,999.66
2023-04-22T11:19:22.372Z,999.69
2023-04-22T11:20:22.360Z,999.71
2023-04-22T11:21:22.397Z,999.68
2023-04-22T11:22:22.334Z,999.67
2023-04-22T11:23:22.340Z,999.66
2023-04-22T11:24:22.320Z,999.59
2023-04-22T11:25:22.313Z,999.52
2023-04-22T11:26:22.292Z,999.61
2023-04-22T11:27:22.293Z,999.60
2023-04-22T11:28:22.295Z,999.63
2023-04-22T11:29:22.280Z,999.53
2023-04-22T11:30:22.246Z,999.59
2023-04-22T11:31:22.260Z,999.53
2023-04-22T11:32:22.249Z,999.61
2023-04-22T11:33:22.218Z,999.47
2023-04-22T11:34:22.221Z,999.54
2023-04-22T11:35:22.194Z,999.54
2023-04-22T11:36:22.178Z,999.52
2023-04-22T11:37:22.164Z,999.52
2023-04-22T11:38:22.158Z,999.56
2023-04-22T11:39:22.143Z,999.55
2023-04-22T11:40:30.804Z,999.45
2023-04-22T11:41:23.131Z,999.58
2023-04-22T11:42:22.128Z,999.50
2023-04-22T11:43:22.108Z,999.52
2023-04-22T11:44:22.093Z,999.51
2023-04-22T11:45:22.101Z,999.51
2023-04-22T11:46:22.500Z,999.54
2023-04-22T11:47:22.142Z,999.57
2023-04-22T11:48:22.050Z,999.52
2023-04-22T11:49:22.035Z,999.48
2023-04-22T11:50:22.023Z,999.51
2023-04-22T11:51:22.014Z,999.42
2023-04-22T11:52:22.014Z,999.49
2023-04-22T11:53:22.004Z,999.50
2023-04-22T11:54:21.989Z,999.47
2023-04-22T11:55:21.969Z,999.42
2023-04-22T11:56:21.981Z,999.51
2023-04-22T11:57:22.005Z,999.46
2023-04-22T11:58:21.932Z,999.56
2023-04-22T11:59:21.941Z,999.52
2023-04-22T12:00:21.910Z,999.56
2023-04-22T12:01:22.025Z,999.53
2023-04-22T12:02:21.961Z,999.54
2023-04-22T12:03:21.993Z,999.52
2023-04-22T12:04:21.935Z,999.46
2023-04-22T12:05:21.876Z,999.44
2023-04-22T12:06:21.856Z,999.43
2023-04-22T12:07:21.851Z,999.30
2023-04-22T12:08:21.824Z,999.32
2023-04-22T12:09:21.813Z,999.31
2023-04-22T12:10:21.823Z,999.38